Time;durP1;ratioP1;P1;durP2;ratioP2;P2;SDS_P1;SDS_P2;PMS_P1;PMS_P2;Temp;Humidity;BMP_temperature;BMP_pressure;BME280_temperature;BME280_humidity;BME280_pressure;Samples;Min_cycle;Max_cycle;Signal;HPM_P1;HPM_P2
2023/05/18 00:01:13;;;;;;;2.55;1.90;;;17.30;48.70;;;;;;5066426;28;45171;-71
2023/05/18 00:03:40;;;;;;;1.92;1.67;;;17.30;48.70;;;;;;5066469;28;46193;-71
2023/05/18 00:06:07;;;;;;;2.92;1.70;;;17.20;48.70;;;;;;5066576;28;45411;-71
2023/05/18 00:08:34;;;;;;;2.00;1.73;;;17.20;48.70;;;;;;5066564;28;45382;-70
2023/05/18 00:11:01;;;;;;;2.15;1.50;;;17.20;48.80;;;;;;5066498;28;45246;-71
2023/05/18 00:13:28;;;;;;;2.90;1.60;;;17.20;48.80;;;;;;5066383;28;45559;-71
2023/05/18 00:15:56;;;;;;;2.20;1.50;;;17.20;48.80;;;;;;5066188;28;45303;-71
2023/05/18 00:18:25;;;;;;;1.98;1.58;;;17.20;48.80;;;;;;5066197;28;45320;-71
2023/05/18 00:20:57;;;;;;;2.35;1.67;;;17.20;48.80;;;;;;5066379;28;45548;-71
2023/05/18 00:23:28;;;;;;;2.38;1.60;;;17.10;48.80;;;;;;5066046;28;46533;-72
2023/05/18 00:25:55;;;;;;;1.88;1.50;;;17.10;48.70;;;;;;5065839;28;45363;-71
2023/05/18 00:28:22;;;;;;;1.75;1.48;;;17.10;48.80;;;;;;5066255;28;45433;-71
2023/05/18 00:30:49;;;;;;;2.75;1.50;;;17.10;48.80;;;;;;5066574;28;45396;-71
2023/05/18 00:33:17;;;;;;;1.65;1.52;;;17.10;48.80;;;;;;5065648;28;45276;-71
2023/05/18 00:35:44;;;;;;;2.35;1.65;;;17.00;48.80;;;;;;5064324;28;45336;-71
2023/05/18 00:38:11;;;;;;;2.33;1.65;;;17.00;48.90;;;;;;5065940;28;45442;-71
2023/05/18 00:40:39;;;;;;;1.63;1.52;;;17.00;48.80;;;;;;5066101;28;45366;-71
2023/05/18 00:43:06;;;;;;;2.05;1.60;;;17.00;48.90;;;;;;5065733;28;47293;-71
2023/05/18 00:45:33;;;;;;;1.88;1.45;;;17.00;48.90;;;;;;5065724;28;45384;-71
2023/05/18 00:48:00;;;;;;;4.00;1.80;;;17.00;48.90;;;;;;5065983;28;45370;-71
2023/05/18 00:50:28;;;;;;;1.95;1.52;;;17.00;48.90;;;;;;5065971;28;45445;-71
2023/05/18 00:52:55;;;;;;;1.45;1.35;;;16.90;48.90;;;;;;5065552;28;46370;-71
2023/05/18 00:55:21;;;;;;;1.90;1.45;;;16.90;48.90;;;;;;5065563;28;45199;-71
2023/05/18 00:57:49;;;;;;;1.30;1.20;;;16.90;48.90;;;;;;5065767;28;45176;-71
2023/05/18 01:00:16;;;;;;;1.63;1.38;;;16.90;48.90;;;;;;5065505;28;45372;-71
2023/05/18 01:02:44;;;;;;;2.42;1.25;;;16.90;48.90;;;;;;5065791;28;46360;-71
2023/05/18 01:05:11;;;;;;;2.47;1.45;;;16.90;49.00;;;;;;5065507;28;45519;-71
2023/05/18 01:07:41;;;;;;;2.13;1.63;;;16.90;49.00;;;;;;5065696;28;45358;-71
2023/05/18 01:10:08;;;;;;;2.63;1.42;;;16.90;49.00;;;;;;5065697;28;45542;-71
2023/05/18 01:12:37;;;;;;;2.03;1.40;;;16.80;49.00;;;;;;5065477;28;45489;-71
2023/05/18 01:15:07;;;;;;;2.85;1.75;;;16.80;48.90;;;;;;5065589;28;45277;-71
2023/05/18 01:17:38;;;;;;;1.55;1.45;;;16.80;49.00;;;;;;5065615;28;45386;-71
2023/05/18 01:20:27;;;;;;;2.15;1.80;;;16.80;49.00;;;;;;5065587;28;45353;-71
2023/05/18 01:23:08;;;;;;;1.63;1.33;;;16.80;49.00;;;;;;5065218;28;46423;-71
2023/05/18 01:25:47;;;;;;;1.88;1.52;;;16.80;49.00;;;;;;5065015;28;45372;-71
2023/05/18 01:28:16;;;;;;;1.55;1.45;;;16.80;49.10;;;;;;5065446;28;45356;-71
2023/05/18 01:30:43;;;;;;;1.58;1.48;;;16.70;49.00;;;;;;5065792;28;45405;-71
2023/05/18 01:33:10;;;;;;;1.27;1.20;;;16.70;49.00;;;;;;5065339;28;45437;-71
2023/05/18 01:35:37;;;;;;;2.42;1.65;;;16.70;49.00;;;;;;5064846;28;45305;-71
2023/05/18 01:38:03;;;;;;;1.58;1.17;;;16.70;49.10;;;;;;5065418;28;45331;-71
2023/05/18 01:40:33;;;;;;;2.58;1.52;;;16.70;49.10;;;;;;5065313;28;45123;-71
2023/05/18 01:43:00;;;;;;;3.03;1.48;;;16.70;49.10;;;;;;5064948;28;45319;-71
2023/05/18 01:45:29;;;;;;;2.20;1.50;;;16.60;49.10;;;;;;5065171;28;45330;-71
2023/05/18 01:47:57;;;;;;;3.15;1.40;;;16.60;49.10;;;;;;5068820;28;45407;-71
2023/05/18 01:50:36;;;;;;;1.30;1.20;;;16.60;49.10;;;;;;5068879;28;45310;-71
2023/05/18 01:53:06;;;;;;;1.30;1.20;;;16.60;49.10;;;;;;5068438;28;46266;-71
2023/05/18 01:55:33;;;;;;;2.03;1.55;;;16.60;49.10;;;;;;5068228;28;45307;-70
2023/05/18 01:58:00;;;;;;;1.77;1.52;;;16.60;49.10;;;;;;5068549;28;45362;-71
2023/05/18 02:00:28;;;;;;;2.92;1.50;;;16.50;49.10;;;;;;5068341;28;45502;-71
2023/05/18 02:02:55;;;;;;;1.80;1.50;;;16.50;49.10;;;;;;5068311;28;45315;-71
2023/05/18 02:05:22;;;;;;;3.13;1.92;;;16.50;49.10;;;;;;5068191;28;45268;-71
2023/05/18 02:07:49;;;;;;;2.53;1.50;;;16.50;49.10;;;;;;5068258;28;45191;-71
2023/05/18 02:10:16;;;;;;;2.33;1.45;;;16.50;49.20;;;;;;5068440;28;45418;-71
2023/05/18 02:12:43;;;;;;;1.63;1.50;;;16.50;49.20;;;;;;5068152;28;46829;-71
2023/05/18 02:15:10;;;;;;;1.73;1.50;;;16.50;49.20;;;;;;5068007;28;45373;-71
2023/05/18 02:17:38;;;;;;;2.72;1.60;;;16.40;49.20;;;;;;5068056;28;45281;-71
2023/05/18 02:20:07;;;;;;;1.75;1.40;;;16.40;49.30;;;;;;5068139;28;45494;-71
2023/05/18 02:22:33;;;;;;;1.00;1.00;;;16.40;49.30;;;;;;5067636;28;47490;-71
2023/05/18 02:25:00;;;;;;;1.92;1.70;;;16.40;49.30;;;;;;5067623;28;45269;-71
2023/05/18 02:27:27;;;;;;;2.53;1.65;;;16.40;49.30;;;;;;5068238;28;45337;-71
2023/05/18 02:29:55;;;;;;;2.10;1.60;;;16.40;49.30;;;;;;5068302;28;45573;-71
2023/05/18 02:32:22;;;;;;;2.33;1.60;;;16.30;49.30;;;;;;5067743;28;46426;-71
2023/05/18 02:34:53;;;;;;;3.00;1.85;;;16.30;49.30;;;;;;5067779;28;45380;-71
2023/05/18 02:37:21;;;;;;;4.65;1.70;;;16.30;49.30;;;;;;5067758;28;45245;-72
2023/05/18 02:39:48;;;;;;;1.75;1.50;;;16.30;49.30;;;;;;5067868;28;45585;-71
2023/05/18 02:42:15;;;;;;;2.28;1.52;;;16.30;49.30;;;;;;5067468;28;45327;-70
2023/05/18 02:44:42;;;;;;;2.65;1.88;;;16.30;49.30;;;;;;5067627;28;45318;-71
2023/05/18 02:47:09;;;;;;;1.38;1.27;;;16.30;49.30;;;;;;5067909;28;45256;-71
2023/05/18 02:49:36;;;;;;;1.75;1.38;;;16.30;49.30;;;;;;5067907;28;45418;-72
2023/05/18 02:52:04;;;;;;;1.63;1.38;;;16.30;49.30;;;;;;5067336;28;47307;-71
2023/05/18 02:54:31;;;;;;;1.95;1.60;;;16.20;49.30;;;;;;5067414;28;45204;-71
2023/05/18 02:56:58;;;;;;;2.03;1.40;;;16.20;49.30;;;;;;5067178;28;45176;-71
2023/05/18 02:59:25;;;;;;;1.65;1.45;;;16.20;49.20;;;;;;5067627;28;45362;-71
2023/05/18 03:01:52;;;;;;;1.60;1.50;;;16.20;49.30;;;;;;5066818;28;45387;-71
2023/05/18 03:04:18;;;;;;;1.63;1.52;;;16.20;49.30;;;;;;5067147;28;45390;-70
2023/05/18 03:06:46;;;;;;;1.95;1.40;;;16.20;49.30;;;;;;5067469;28;45370;-71
2023/05/18 03:09:15;;;;;;;1.63;1.52;;;16.20;49.30;;;;;;5067400;28;45570;-71
2023/05/18 03:11:42;;;;;;;2.50;1.40;;;16.10;49.20;;;;;;5067361;28;46857;-71
2023/05/18 03:14:08;;;;;;;2.00;1.75;;;16.10;49.20;;;;;;5067049;28;45392;-71
2023/05/18 03:16:37;;;;;;;1.40;1.27;;;16.10;49.30;;;;;;5067094;28;45360;-71
2023/05/18 03:19:04;;;;;;;1.42;1.33;;;16.10;49.30;;;;;;5067489;28;45300;-71
2023/05/18 03:21:34;;;;;;;1.50;1.40;;;16.10;49.30;;;;;;5067196;28;46562;-71
2023/05/18 03:24:01;;;;;;;2.53;1.55;;;16.10;49.30;;;;;;5067090;28;45396;-71
2023/05/18 03:26:30;;;;;;;1.65;1.40;;;16.00;49.20;;;;;;5067110;28;45287;-71
2023/05/18 03:28:56;;;;;;;1.23;1.17;;;16.00;49.20;;;;;;5067489;28;45456;-71
2023/05/18 03:31:23;;;;;;;1.70;1.60;;;16.00;49.20;;;;;;5066927;28;46402;-70
2023/05/18 03:33:50;;;;;;;1.67;1.45;;;16.00;49.20;;;;;;5066920;28;45429;-71
2023/05/18 03:36:17;;;;;;;1.63;1.52;;;16.00;49.30;;;;;;5066926;28;45347;-71
2023/05/18 03:38:45;;;;;;;1.70;1.33;;;16.00;49.30;;;;;;5067488;28;45373;-71
2023/05/18 03:41:11;;;;;;;1.65;1.40;;;16.00;49.30;;;;;;5066734;28;45635;-71
2023/05/18 03:43:40;;;;;;;1.40;1.30;;;16.00;49.30;;;;;;5066530;28;45379;-71
2023/05/18 03:46:07;;;;;;;1.40;1.30;;;15.90;49.20;;;;;;5066691;28;45270;-71
2023/05/18 03:48:33;;;;;;;2.38;1.33;;;15.90;49.30;;;;;;5067183;28;45261;-71
2023/05/18 03:51:00;;;;;;;2.13;1.77;;;15.90;49.20;;;;;;5066399;28;46417;-72
2023/05/18 03:53:28;;;;;;;1.50;1.40;;;15.90;49.40;;;;;;5066351;28;45567;-71
2023/05/18 03:55:55;;;;;;;1.60;1.42;;;15.90;49.30;;;;;;5066611;28;45344;-71
2023/05/18 03:58:22;;;;;;;1.80;1.60;;;15.90;49.30;;;;;;5066859;28;45227;-72
2023/05/18 04:00:51;;;;;;;1.40;1.27;;;15.90;49.30;;;;;;5066411;28;46761;-71
2023/05/18 04:03:20;;;;;;;1.33;1.23;;;15.90;49.30;;;;;;5066457;28;45303;-72
2023/05/18 04:05:47;;;;;;;1.98;1.65;;;15.80;49.20;;;;;;5066519;28;45204;-71
2023/05/18 04:08:14;;;;;;;1.30;1.27;;;15.80;49.30;;;;;;5066657;28;45478;-71
2023/05/18 04:10:41;;;;;;;3.28;1.40;;;15.80;49.30;;;;;;5065915;28;46366;-71
2023/05/18 04:13:08;;;;;;;1.98;1.70;;;15.80;49.30;;;;;;5066221;28;45415;-72
2023/05/18 04:15:35;;;;;;;1.70;1.60;;;15.80;49.40;;;;;;5066258;28;45336;-71
2023/05/18 04:18:04;;;;;;;2.08;1.60;;;15.80;49.40;;;;;;5066485;28;45541;-72
2023/05/18 04:20:31;;;;;;;1.83;1.40;;;15.80;49.40;;;;;;5066023;28;46417;-71
2023/05/18 04:22:58;;;;;;;1.30;1.20;;;15.70;49.30;;;;;;5066252;28;45387;-72
2023/05/18 04:25:26;;;;;;;1.50;1.40;;;15.70;49.30;;;;;;5065989;28;45400;-71
2023/05/18 04:27:53;;;;;;;2.50;1.48;;;15.70;49.30;;;;;;5066351;28;45146;-71
2023/05/18 04:30:21;;;;;;;2.38;1.58;;;15.70;49.30;;;;;;5065770;28;46740;-72
2023/05/18 04:32:48;;;;;;;2.33;1.25;;;15.70;49.40;;;;;;5066078;28;45399;-72
2023/05/18 04:35:17;;;;;;;2.22;1.70;;;15.70;49.40;;;;;;5066247;28;45370;-71
2023/05/18 04:37:44;;;;;;;1.50;1.27;;;15.70;49.40;;;;;;5066199;28;45532;-71
2023/05/18 04:40:12;;;;;;;1.20;1.10;;;15.70;49.40;;;;;;5065323;28;45478;-71
2023/05/18 04:42:43;;;;;;;1.83;1.30;;;15.70;49.40;;;;;;5065673;28;45412;-71
2023/05/18 04:45:15;;;;;;;1.40;1.30;;;15.70;49.40;;;;;;5065944;28;45304;-71
2023/05/18 04:47:45;;;;;;;1.63;1.25;;;15.60;49.30;;;;;;5065998;28;45285;-71
2023/05/18 04:50:13;;;;;;;2.20;1.80;;;15.70;49.50;;;;;;5065493;28;45249;-71
2023/05/18 04:52:47;;;;;;;1.65;1.23;;;15.60;49.40;;;;;;5065702;28;45634;-71
2023/05/18 04:55:15;;;;;;;2.97;1.73;;;15.70;49.50;;;;;;5066069;28;45349;-71
2023/05/18 04:57:43;;;;;;;2.08;1.40;;;15.60;49.40;;;;;;5065502;27;45643;-72
2023/05/18 05:00:11;;;;;;;1.52;1.40;;;15.60;49.40;;;;;;5065365;28;46481;-71
2023/05/18 05:02:38;;;;;;;2.35;1.45;;;15.60;49.40;;;;;;5065407;28;45396;-72
2023/05/18 05:05:07;;;;;;;1.67;1.45;;;15.60;49.40;;;;;;5065683;28;45280;-72
2023/05/18 05:07:34;;;;;;;2.15;1.33;;;15.60;49.40;;;;;;5065749;28;45151;-71
2023/05/18 05:10:02;;;;;;;2.13;1.50;;;15.60;49.40;;;;;;5065586;28;46363;-71
2023/05/18 05:12:29;;;;;;;2.20;1.25;;;15.60;49.40;;;;;;5065345;28;45443;-71
2023/05/18 05:14:56;;;;;;;1.67;1.58;;;15.60;49.40;;;;;;5065537;28;45349;-72
2023/05/18 05:17:23;;;;;;;2.03;1.50;;;15.60;50.10;;;;;;5065514;28;45311;-71
2023/05/18 05:19:49;;;;;;;2.42;1.40;;;15.60;49.50;;;;;;5065174;28;45469;-71
2023/05/18 05:22:18;;;;;;;2.28;1.60;;;15.60;49.50;;;;;;5067849;28;45263;-71
2023/05/18 05:24:45;;;;;;;1.98;1.30;;;15.60;49.40;;;;;;5068856;28;45320;-71
2023/05/18 05:27:13;;;;;;;2.08;1.30;;;15.60;49.50;;;;;;5069060;28;45479;-71
2023/05/18 05:29:41;;;;;;;2.92;1.40;;;15.60;49.50;;;;;;5068648;28;47700;-71
2023/05/18 05:32:08;;;;;;;1.40;1.30;;;15.60;49.40;;;;;;5068460;28;45353;-71
2023/05/18 05:34:36;;;;;;;1.70;1.60;;;15.60;49.40;;;;;;5068700;28;45292;-71
2023/05/18 05:37:03;;;;;;;1.48;1.38;;;15.60;49.50;;;;;;5068851;28;45253;-71
2023/05/18 05:39:30;;;;;;;1.98;1.60;;;15.60;49.50;;;;;;5068581;28;46625;-71
2023/05/18 05:41:57;;;;;;;1.70;1.42;;;15.60;49.40;;;;;;5068464;28;45272;-72
2023/05/18 05:44:25;;;;;;;1.80;1.58;;;15.60;50.00;;;;;;5068790;28;45336;-71
2023/05/18 05:46:52;;;;;;;1.90;1.50;;;15.60;49.40;;;;;;5068584;28;45316;-71
2023/05/18 05:49:18;;;;;;;1.70;1.50;;;15.60;49.40;;;;;;5068546;28;45244;-71
2023/05/18 05:51:45;;;;;;;1.77;1.52;;;15.60;49.30;;;;;;5068630;28;45245;-72
2023/05/18 05:54:12;;;;;;;1.60;1.40;;;15.60;49.30;;;;;;5068562;28;45428;-71
2023/05/18 05:56:39;;;;;;;2.00;1.70;;;15.70;49.30;;;;;;5068498;28;45443;-71
2023/05/18 05:59:06;;;;;;;1.70;1.40;;;15.70;49.30;;;;;;5068153;28;45397;-71
2023/05/18 06:01:34;;;;;;;1.60;1.50;;;15.70;49.30;;;;;;5067749;28;45337;-71
2023/05/18 06:04:01;;;;;;;2.17;1.58;;;15.70;49.40;;;;;;5068258;28;45205;-72
2023/05/18 06:06:28;;;;;;;1.20;1.10;;;15.70;49.40;;;;;;5068357;28;45498;-72
2023/05/18 06:08:55;;;;;;;1.50;1.40;;;15.70;49.40;;;;;;5067855;28;45458;-71
2023/05/18 06:11:22;;;;;;;1.77;1.58;;;15.70;49.40;;;;;;5067820;28;45424;-71
2023/05/18 06:13:50;;;;;;;2.13;1.40;;;15.70;49.40;;;;;;5067851;28;45401;-71
2023/05/18 06:16:17;;;;;;;2.00;1.27;;;15.70;49.40;;;;;;5067988;28;45408;-72
2023/05/18 06:18:46;;;;;;;2.05;1.60;;;15.70;49.40;;;;;;5067569;28;46698;-71
2023/05/18 06:21:13;;;;;;;1.90;1.60;;;15.70;49.40;;;;;;5067909;28;45302;-72
2023/05/18 06:23:40;;;;;;;1.95;1.42;;;15.70;49.50;;;;;;5067754;28;45411;-72
2023/05/18 06:26:07;;;;;;;2.10;1.33;;;15.70;49.50;;;;;;5067521;28;45314;-71
2023/05/18 06:28:34;;;;;;;2.15;1.95;;;15.70;50.10;;;;;;5067507;28;46484;-72
2023/05/18 06:31:01;;;;;;;1.45;1.35;;;15.70;49.50;;;;;;5067646;28;45389;-71
2023/05/18 06:33:27;;;;;;;1.63;1.38;;;15.70;49.50;;;;;;5067433;28;45379;-72
2023/05/18 06:35:56;;;;;;;2.67;1.30;;;15.70;49.50;;;;;;5067365;28;45408;-71
2023/05/18 06:38:23;;;;;;;1.48;1.23;;;15.70;49.50;;;;;;5067277;28;47637;-72
2023/05/18 06:40:50;;;;;;;1.65;1.20;;;15.70;49.50;;;;;;5067145;28;45299;-71
2023/05/18 06:43:16;;;;;;;2.42;1.30;;;15.70;49.60;;;;;;5067419;28;45411;-72
2023/05/18 06:45:43;;;;;;;1.33;1.23;;;15.70;49.60;;;;;;5067404;28;45376;-71
2023/05/18 06:48:10;;;;;;;1.58;1.40;;;15.70;49.60;;;;;;5067311;28;45251;-72
2023/05/18 06:50:37;;;;;;;1.98;1.50;;;15.80;49.70;;;;;;5067482;28;45277;-71
2023/05/18 06:53:05;;;;;;;1.83;1.50;;;15.80;49.70;;;;;;5067429;28;45268;-71
2023/05/18 06:55:32;;;;;;;1.45;1.33;;;15.80;49.70;;;;;;5067369;28;45375;-71
2023/05/18 06:57:58;;;;;;;1.58;1.20;;;15.80;49.70;;;;;;5066831;28;45261;-72
2023/05/18 07:00:25;;;;;;;2.13;1.27;;;15.80;49.70;;;;;;5066922;28;45487;-71
2023/05/18 07:02:52;;;;;;;1.65;1.55;;;15.80;49.70;;;;;;5067280;28;45396;-71
2023/05/18 07:05:19;;;;;;;1.75;1.40;;;15.80;49.70;;;;;;5067391;28;45558;-71
2023/05/18 07:07:46;;;;;;;3.13;1.33;;;15.80;49.70;;;;;;5067086;28;45377;-72
2023/05/18 07:10:14;;;;;;;1.77;1.30;;;15.80;49.70;;;;;;5067022;28;45340;-71
2023/05/18 07:12:41;;;;;;;1.42;1.33;;;15.90;49.80;;;;;;5067353;28;45185;-72
2023/05/18 07:15:10;;;;;;;2.13;1.50;;;15.90;49.80;;;;;;5067399;28;45524;-71
2023/05/18 07:17:37;;;;;;;2.83;1.30;;;15.90;49.80;;;;;;5067019;28;45440;-71
2023/05/18 07:20:05;;;;;;;1.55;1.45;;;15.90;49.80;;;;;;5066862;28;45281;-72
2023/05/18 07:22:32;;;;;;;1.70;1.50;;;15.90;49.80;;;;;;5066808;28;45279;-71
2023/05/18 07:24:59;;;;;;;1.40;1.30;;;15.90;49.80;;;;;;5067019;28;45371;-72
2023/05/18 07:27:27;;;;;;;1.92;1.55;;;15.90;50.20;;;;;;5066456;28;46658;-72
2023/05/18 07:29:54;;;;;;;2.05;1.30;;;16.00;50.10;;;;;;5067418;28;45343;-72
2023/05/18 07:32:21;;;;;;;1.73;1.40;;;16.00;50.00;;;;;;5067379;28;45312;-73
2023/05/18 07:34:48;;;;;;;3.17;1.70;;;16.00;50.00;;;;;;5067250;28;45420;-72
2023/05/18 07:37:15;;;;;;;1.92;1.73;;;16.00;50.00;;;;;;5066857;28;47799;-72
2023/05/18 07:39:42;;;;;;;2.30;1.25;;;16.00;50.00;;;;;;5066664;27;45367;-72
2023/05/18 07:42:10;;;;;;;1.65;1.50;;;16.00;50.00;;;;;;5066677;28;45315;-72
2023/05/18 07:44:38;;;;;;;1.70;1.50;;;16.00;49.90;;;;;;5066942;28;45330;-72
2023/05/18 07:47:05;;;;;;;2.33;1.80;;;16.00;50.00;;;;;;5066723;28;46374;-72
2023/05/18 07:49:31;;;;;;;1.60;1.50;;;16.10;50.00;;;;;;5066827;28;45396;-72
2023/05/18 07:51:59;;;;;;;1.35;1.13;;;16.10;50.00;;;;;;5066886;28;45267;-72
2023/05/18 07:54:26;;;;;;;1.75;1.50;;;16.10;50.00;;;;;;5067129;28;45257;-72
2023/05/18 07:56:53;;;;;;;1.50;1.27;;;16.10;50.00;;;;;;5066716;28;46613;-72
2023/05/18 07:59:20;;;;;;;2.42;1.52;;;16.10;50.10;;;;;;5066715;28;45340;-72
2023/05/18 08:01:48;;;;;;;1.98;1.45;;;16.10;50.10;;;;;;5066292;28;45487;-73
2023/05/18 08:04:15;;;;;;;2.00;1.77;;;16.10;50.20;;;;;;5067066;28;45315;-72
2023/05/18 08:06:41;;;;;;;3.45;1.70;;;16.10;50.20;;;;;;5066852;28;46800;-72
2023/05/18 08:09:08;;;;;;;3.05;1.70;;;16.10;50.20;;;;;;5066774;28;45360;-72
2023/05/18 08:11:36;;;;;;;2.15;1.80;;;16.10;50.30;;;;;;5066819;28;45292;-72
2023/05/18 08:14:02;;;;;;;3.58;2.15;;;16.20;50.30;;;;;;5067148;28;45359;-72
2023/05/18 08:16:30;;;;;;;2.70;1.88;;;16.20;50.30;;;;;;5066322;28;46381;-72
2023/05/18 08:18:58;;;;;;;2.40;1.52;;;16.20;50.30;;;;;;5066686;28;47150;-72
2023/05/18 08:21:25;;;;;;;2.97;1.83;;;16.20;50.30;;;;;;5066842;28;45296;-72
2023/05/18 08:23:52;;;;;;;3.10;1.70;;;16.20;50.30;;;;;;5065982;28;45415;-72
2023/05/18 08:26:19;;;;;;;2.85;2.00;;;16.20;50.20;;;;;;5066156;28;46335;-72
2023/05/18 08:28:47;;;;;;;4.07;2.00;;;16.30;50.30;;;;;;5066304;28;45270;-72
2023/05/18 08:31:14;;;;;;;2.78;1.50;;;16.30;50.30;;;;;;5066643;28;45366;-72
2023/05/18 08:33:41;;;;;;;2.70;1.80;;;16.30;50.30;;;;;;5066706;28;45442;-72
2023/05/18 08:36:10;;;;;;;3.08;1.70;;;16.30;50.20;;;;;;5066181;28;45275;-72
2023/05/18 08:38:37;;;;;;;2.70;1.85;;;16.40;50.20;;;;;;5066584;28;45320;-72
2023/05/18 08:41:14;;;;;;;5.20;2.15;;;16.40;50.20;;;;;;5066493;28;45436;-72
2023/05/18 08:43:42;;;;;;;2.70;1.95;;;16.40;50.20;;;;;;5066845;28;45370;-72
2023/05/18 08:46:13;;;;;;;4.47;2.30;;;16.40;50.20;;;;;;5066036;28;45413;-72
2023/05/18 08:48:40;;;;;;;2.80;1.92;;;16.50;50.30;;;;;;5066695;28;45359;-72
2023/05/18 08:51:07;;;;;;;3.95;1.70;;;16.50;50.20;;;;;;5066807;28;45328;-72
2023/05/18 08:53:35;;;;;;;2.97;2.05;;;16.50;50.20;;;;;;5066641;28;45412;-72
2023/05/18 08:56:02;;;;;;;3.05;1.95;;;16.60;50.30;;;;;;5067060;28;45399;-72
2023/05/18 08:58:33;;;;;;;3.13;1.92;;;16.60;50.30;;;;;;5069280;28;45325;-73
2023/05/18 09:00:59;;;;;;;2.65;1.55;;;16.60;50.30;;;;;;5063574;28;45371;-71
2023/05/18 09:03:26;;;;;;;3.15;1.95;;;16.60;50.40;;;;;;5069975;28;45304;-74
2023/05/18 09:05:53;;;;;;;3.78;2.20;;;16.70;50.70;;;;;;5069560;28;46426;-72
2023/05/18 09:08:20;;;;;;;4.50;2.20;;;16.70;50.80;;;;;;5069824;28;45391;-72
2023/05/18 09:10:48;;;;;;;3.17;1.95;;;16.70;51.20;;;;;;5069460;28;45304;-71
2023/05/18 09:13:15;;;;;;;10.00;2.28;;;16.80;51.50;;;;;;5068893;28;45285;-70
2023/05/18 09:15:42;;;;;;;2.67;2.00;;;16.80;51.50;;;;;;5070688;28;46419;-73
2023/05/18 09:18:09;;;;;;;7.65;2.25;;;16.90;51.60;;;;;;5073066;28;45394;-74
2023/05/18 09:20:36;;;;;;;3.22;2.00;;;16.90;51.70;;;;;;5073364;28;45322;-74
2023/05/18 09:23:03;;;;;;;6.03;2.60;;;16.90;51.80;;;;;;5071532;28;45436;-72
2023/05/18 09:25:30;;;;;;;9.85;3.60;;;17.00;51.70;;;;;;5070818;28;45310;-75
2023/05/18 09:27:58;;;;;;;6.38;3.47;;;17.00;51.10;;;;;;5071062;28;45308;-73
2023/05/18 09:30:25;;;;;;;7.25;2.97;;;17.00;50.70;;;;;;5071388;28;45228;-74
2023/05/18 09:32:52;;;;;;;4.63;2.70;;;17.10;50.50;;;;;;5071075;28;45444;-75
2023/05/18 09:35:19;;;;;;;5.47;2.70;;;17.20;50.50;;;;;;5072525;28;46363;-73
2023/05/18 09:37:46;;;;;;;4.25;2.75;;;17.20;50.00;;;;;;5072983;28;45312;-73
2023/05/18 09:40:14;;;;;;;6.57;3.03;;;17.20;50.00;;;;;;5070869;28;45260;-75
2023/05/18 09:42:43;;;;;;;5.22;2.50;;;17.20;49.60;;;;;;5072387;28;45232;-74
2023/05/18 09:45:17;;;;;;;5.00;2.47;;;17.30;49.20;;;;;;5070366;28;46272;-73
2023/05/18 09:47:44;;;;;;;4.60;2.30;;;17.30;48.90;;;;;;5070285;28;45285;-73
2023/05/18 09:50:11;;;;;;;3.45;2.33;;;17.40;48.70;;;;;;5071439;28;45257;-74
2023/05/18 09:52:42;;;;;;;4.85;2.25;;;17.40;48.80;;;;;;5070666;28;45494;-72
2023/05/18 09:55:10;;;;;;;4.35;2.22;;;17.40;48.70;;;;;;5070814;28;45404;-73
2023/05/18 09:57:40;;;;;;;2.78;1.92;;;17.50;48.80;;;;;;5070137;28;45327;-70
2023/05/18 10:00:10;;;;;;;3.53;2.25;;;17.50;48.40;;;;;;5071549;28;45315;-72
2023/05/18 10:02:40;;;;;;;4.80;2.25;;;17.60;48.30;;;;;;5069786;28;45116;-74
2023/05/18 10:05:08;;;;;;;4.85;2.20;;;17.60;48.10;;;;;;5069481;28;45576;-75
2023/05/18 10:07:36;;;;;;;3.92;2.30;;;17.60;48.20;;;;;;5069555;28;45330;-73
2023/05/18 10:10:03;;;;;;;5.00;2.10;;;17.70;48.40;;;;;;5070068;28;45210;-72
2023/05/18 10:12:30;;;;;;;3.13;1.90;;;17.70;48.20;;;;;;5069734;28;45409;-70
2023/05/18 10:14:56;;;;;;;4.38;1.95;;;17.80;48.00;;;;;;5069469;28;46663;-72
2023/05/18 10:17:24;;;;;;;2.78;2.30;;;17.80;47.70;;;;;;5068733;28;45464;-71
2023/05/18 10:19:52;;;;;;;5.53;2.13;;;17.90;47.50;;;;;;5069267;28;45277;-71
2023/05/18 10:22:21;;;;;;;2.45;1.80;;;17.90;47.30;;;;;;5069900;28;45173;-73
2023/05/18 10:24:51;;;;;;;7.78;2.28;;;18.00;47.20;;;;;;5069201;28;45536;-71
2023/05/18 10:27:19;;;;;;;3.78;2.08;;;18.00;46.80;;;;;;5069030;28;45275;-72
2023/05/18 10:29:46;;;;;;;4.22;2.25;;;18.00;46.70;;;;;;5069256;27;45265;-73
2023/05/18 10:32:14;;;;;;;4.63;1.83;;;18.10;46.60;;;;;;5062863;28;45529;-74
2023/05/18 10:34:40;;;;;;;2.85;1.95;;;18.10;46.70;;;;;;5048043;28;46646;-70
2023/05/18 10:37:09;;;;;;;3.38;1.90;;;18.10;46.50;;;;;;5048038;28;45416;-70
2023/05/18 10:39:36;;;;;;;6.90;1.73;;;18.20;46.30;;;;;;5060621;28;45501;-70
2023/05/18 10:42:03;;;;;;;5.47;2.20;;;18.20;46.30;;;;;;5046875;28;45576;-73
2023/05/18 10:44:30;;;;;;;5.47;2.42;;;18.30;46.40;;;;;;5053717;28;47350;-72
2023/05/18 10:46:57;;;;;;;3.10;1.77;;;18.30;46.20;;;;;;5066720;28;45378;-71
2023/05/18 10:49:24;;;;;;;4.97;2.17;;;18.30;46.00;;;;;;5064276;28;45463;-73
2023/05/18 10:51:52;;;;;;;4.38;1.85;;;18.30;46.10;;;;;;5067717;28;45399;-71
2023/05/18 10:54:21;;;;;;;14.70;6.70;;;18.40;46.20;;;;;;5058565;28;45619;-71
2023/05/18 10:56:50;;;;;;;6.97;4.00;;;18.40;46.00;;;;;;5061433;28;45365;-69
2023/05/18 10:59:17;;;;;;;6.32;3.92;;;18.50;46.00;;;;;;5065539;28;45305;-70
2023/05/18 11:01:44;;;;;;;6.03;3.72;;;18.60;46.00;;;;;;5066594;28;45523;-71
2023/05/18 11:04:11;;;;;;;8.25;3.28;;;18.60;46.00;;;;;;5055056;27;46979;-69
2023/05/18 11:06:38;;;;;;;5.97;3.40;;;18.60;45.80;;;;;;5066622;28;45333;-72
2023/05/18 11:09:05;;;;;;;5.93;2.90;;;18.60;45.80;;;;;;5056721;28;45490;-71
2023/05/18 11:11:48;;;;;;;6.78;2.67;;;18.60;45.80;;;;;;5046548;28;45376;-73
2023/05/18 11:14:15;;;;;;;7.80;2.40;;;18.70;45.70;;;;;;5048588;28;46452;-71
2023/05/18 11:16:42;;;;;;;8.23;4.55;;;18.70;45.60;;;;;;5046424;28;45309;-71
2023/05/18 11:19:10;;;;;;;7.00;3.97;;;18.70;45.30;;;;;;5047977;28;45328;-72
2023/05/18 11:21:55;;;;;;;8.30;5.65;;;18.80;45.30;;;;;;5046539;28;45233;-72
2023/05/18 11:24:30;;;;;;;6.53;4.00;;;18.90;45.00;;;;;;5053091;28;46862;-74
2023/05/18 11:26:59;;;;;;;4.38;3.47;;;18.90;45.10;;;;;;5066222;28;45336;-70
2023/05/18 11:29:31;;;;;;;4.75;3.35;;;18.90;45.30;;;;;;5066640;28;45423;-70
2023/05/18 11:31:58;;;;;;;7.15;3.10;;;18.90;45.10;;;;;;5057581;28;45587;-72
2023/05/18 11:34:43;;;;;;;3.88;2.50;;;19.00;44.90;;;;;;5066175;28;45303;-72
2023/05/18 11:37:11;;;;;;;6.07;2.90;;;19.00;44.70;;;;;;5060859;28;45693;-71
2023/05/18 11:39:38;;;;;;;3.53;2.47;;;19.00;44.70;;;;;;5051307;28;45450;-72
2023/05/18 11:42:08;;;;;;;5.25;2.50;;;19.00;44.40;;;;;;5046103;28;45675;-72
2023/05/18 11:44:35;;;;;;;4.07;2.55;;;19.00;44.30;;;;;;5045834;28;45318;-72
2023/05/18 11:47:02;;;;;;;4.05;2.20;;;19.00;44.20;;;;;;5056889;28;45503;-71
2023/05/18 11:49:30;;;;;;;4.63;2.60;;;19.00;44.30;;;;;;5054695;28;45498;-72
2023/05/18 11:52:01;;;;;;;6.25;2.55;;;19.00;44.60;;;;;;5059445;28;45572;-71
2023/05/18 11:54:28;;;;;;;4.10;2.40;;;19.10;44.70;;;;;;5056286;28;46719;-70
2023/05/18 11:56:55;;;;;;;5.85;2.03;;;19.10;45.00;;;;;;5061004;27;45483;-70
2023/05/18 11:59:33;;;;;;;4.78;2.30;;;19.10;44.50;;;;;;5075828;27;45472;-72
2023/05/18 12:02:01;;;;;;;3.65;1.92;;;19.10;44.30;;;;;;5067022;28;45491;-73
2023/05/18 12:04:28;;;;;;;10.15;4.65;;;19.20;44.20;;;;;;5069290;28;46504;-74
2023/05/18 12:06:57;;;;;;;6.32;3.50;;;19.20;44.10;;;;;;5065843;28;45382;-72
2023/05/18 12:09:24;;;;;;;6.70;3.50;;;19.20;43.90;;;;;;5065194;28;45318;-70
2023/05/18 12:11:51;;;;;;;5.90;3.05;;;19.20;43.80;;;;;;5065926;28;45404;-71
2023/05/18 12:14:19;;;;;;;8.52;3.50;;;19.30;43.90;;;;;;5054012;28;46153;-70
2023/05/18 12:16:47;;;;;;;9.25;2.60;;;19.30;44.30;;;;;;5045438;28;45364;-70
2023/05/18 12:19:14;;;;;;;4.43;2.55;;;19.30;44.40;;;;;;5046901;28;45385;-69
2023/05/18 12:21:41;;;;;;;6.60;2.58;;;19.30;44.10;;;;;;5059321;28;45581;-71
2023/05/18 12:24:08;;;;;;;4.68;2.78;;;19.30;44.10;;;;;;5061846;28;46815;-70
2023/05/18 12:26:37;;;;;;;5.03;2.75;;;19.30;44.20;;;;;;5061417;28;45420;-69
2023/05/18 12:29:04;;;;;;;5.05;2.67;;;19.30;44.00;;;;;;5044845;28;45321;-71
2023/05/18 12:31:31;;;;;;;3.55;1.90;;;19.30;44.10;;;;;;5046045;28;45513;-70
2023/05/18 12:34:02;;;;;;;9.38;2.50;;;19.30;43.90;;;;;;5061204;28;45423;-71
2023/05/18 12:36:29;;;;;;;4.50;2.58;;;19.30;44.10;;;;;;5062409;27;45303;-69
2023/05/18 12:38:56;;;;;;;3.47;2.33;;;19.30;44.00;;;;;;5064948;28;45306;-71
2023/05/18 12:41:24;;;;;;;3.80;2.28;;;19.30;44.40;;;;;;5053085;28;45519;-73
2023/05/18 12:43:53;;;;;;;3.75;2.60;;;19.40;44.70;;;;;;5064046;28;45350;-71
2023/05/18 12:46:21;;;;;;;3.40;2.17;;;19.40;45.20;;;;;;5065200;28;45202;-70
2023/05/18 12:48:51;;;;;;;3.72;2.20;;;19.40;45.20;;;;;;5057203;28;45350;-70